/.cvsignore/1.1/Fri Jul 26 02:20:47 2013//
/HowToBuild.txt/1.3/Sun Mar  8 15:25:35 2015//
/ooHG.h/1.1/Fri Jul 26 02:20:48 2013//
/ooHG.hhk/1.4/Tue Oct 25 21:37:46 2016//
D/images////
D/template4////
/ACTIVEX.HTM/1.12/Mon Sep 18 16:29:27 2017//
/ANIGIF.HTM/1.3/Mon Sep 18 16:29:27 2017//
/ANIMATEBOX.HTM/1.11/Mon Sep 18 16:29:27 2017//
/BOSTAURUS.HTM/1.1/Sat Aug 26 02:54:08 2017//
/BOSTAURUS_CONSTANTS.HTM/1.1/Sat Aug 26 02:54:09 2017//
/BOSTAURUS_FUNCTIONS.HTM/1.1/Sat Aug 26 02:54:09 2017//
/BROWSE.HTM/1.10/Mon Sep 18 16:29:27 2017//
/BUTTON.HTM/1.10/Mon Sep 18 16:29:27 2017//
/CHECKBOX.HTM/1.7/Mon Sep 18 16:29:27 2017//
/CHECKBUTTON.HTM/1.6/Mon Sep 18 16:29:27 2017//
/CHECKLIST.HTM/1.6/Mon Sep 18 16:29:27 2017//
/CLASSES.HTM/1.24/Mon Sep 18 16:29:27 2017//
/CLASSES_INDEX.HTM/1.1/Sat Aug 26 02:54:10 2017//
/COMBOBOX.HTM/1.6/Mon Sep 18 16:29:29 2017//
/COMMANDS.HTM/1.1/Sat Aug 26 02:54:10 2017//
/CONTROLS.HTM/1.1/Sat Aug 26 02:54:10 2017//
/Changelog.htm/1.126/Mon Sep 18 16:29:29 2017//
/DATEPICKER.HTM/1.7/Mon Sep 18 16:29:29 2017//
/DO_REPORT.HTM/1.8/Mon Sep 18 16:29:29 2017//
/DRAW_IN_WINDOW.HTM/1.8/Mon Sep 18 16:29:29 2017//
/EDITBOX.HTM/1.7/Mon Sep 18 16:29:29 2017//
/EDIT_EXTENDED.HTM/1.8/Mon Sep 18 16:29:29 2017//
/EDIT_WORKAREA.HTM/1.8/Mon Sep 18 16:29:29 2017//
/FRAME.HTM/1.6/Mon Sep 18 16:29:29 2017//
/GRID.HTM/1.7/Mon Sep 18 16:29:29 2017//
/HBPRINTER.HTM/1.6/Mon Sep 18 16:29:29 2017//
/HBPRINTER_@_COMMANDS.HTM/1.6/Mon Sep 18 16:29:29 2017//
/HBPRINTER_CONSTANTS.HTM/1.6/Mon Sep 18 16:29:29 2017//
/HBPRINTER_DRAWING_COMMANDS.HTM/1.5/Mon Sep 18 16:29:30 2017//
/HBPRINTER_FONT_COMMANDS.HTM/1.6/Mon Sep 18 16:29:30 2017//
/HBPRINTER_GET_COMMANDS.HTM/1.6/Mon Sep 18 16:29:30 2017//
/HBPRINTER_PRINT_COMMANDS.HTM/1.6/Mon Sep 18 16:29:30 2017//
/HBPRINTER_SAMPLE.HTM/1.5/Mon Sep 18 16:29:30 2017//
/HBPRINTER_SET_COMMANDS.HTM/1.6/Mon Sep 18 16:29:30 2017//
/HBPRINTER_SET_GET_TEXT_COMMANDS.htm/1.5/Mon Sep 18 16:29:30 2017//
/HOTKEY.HTM/1.6/Mon Sep 18 16:29:30 2017//
/HOTKEYBOX.HTM/1.6/Mon Sep 18 16:29:30 2017//
/HYPERLINK.HTM/1.6/Mon Sep 18 16:29:30 2017//
/IMAGE.HTM/1.6/Mon Sep 18 16:29:30 2017//
/INFORMATION.HTM/1.1/Sat Aug 26 02:54:10 2017//
/INTERNAL.HTM/1.6/Mon Sep 18 16:29:30 2017//
/IPADDRESS.HTM/1.6/Mon Sep 18 16:29:30 2017//
/LABEL.HTM/1.6/Mon Sep 18 16:29:30 2017//
/LIBRARIES.HTM/1.5/Mon Sep 18 16:29:30 2017//
/LICENSE.HTM/1.2/Sat Aug 26 02:54:08 2017//
/LISTBOX.HTM/1.8/Mon Sep 18 16:29:30 2017//
/MINIPRINT.HTM/1.1/Sat Aug 26 02:54:10 2017//
/MINIPRINT_@_COMMANDS.HTM/1.1/Sat Aug 26 02:54:10 2017//
/MINIPRINT_CONSTANTS.HTM/1.1/Sat Aug 26 02:54:10 2017//
/MINIPRINT_DRAWING_COMMANDS.HTM/1.1/Sat Aug 26 02:54:10 2017//
/MINIPRINT_PRINT_COMMANDS.HTM/1.1/Sat Aug 26 02:54:10 2017//
/MINIPRINT_SAMPLE.HTM/1.1/Sat Aug 26 02:54:10 2017//
/MINIPRINT_SET_COMMANDS.HTM/1.1/Sat Aug 26 02:54:10 2017//
/MONTHCALENDAR.HTM/1.6/Mon Sep 18 16:29:30 2017//
/OOHG.HTM/1.2/Sat Aug 26 03:03:15 2017//
/OVERVIEW.HTM/1.11/Mon Sep 18 16:29:30 2017//
/PICTURE.HTM/1.1/Sat Aug 26 02:54:10 2017//
/PLAYER.HTM/1.8/Mon Sep 18 16:29:31 2017//
/PROGRESSBAR.HTM/1.6/Mon Sep 18 16:29:31 2017//
/PROGRESSMETER.HTM/1.6/Mon Sep 18 16:29:31 2017//
/RADIOGROUP.HTM/1.7/Mon Sep 18 16:29:31 2017//
/RICHEDITBOX.HTM/1.6/Mon Sep 18 16:29:31 2017//
/SCREENSAVER.HTM/1.6/Mon Sep 18 16:29:31 2017//
/SLIDER.HTM/1.6/Mon Sep 18 16:29:31 2017//
/SPINNER.HTM/1.6/Mon Sep 18 16:29:31 2017//
/SPLITBOX.HTM/1.6/Mon Sep 18 16:29:31 2017//
/STATUSBAR.HTM/1.6/Mon Sep 18 16:29:31 2017//
/TAB.HTM/1.6/Mon Sep 18 16:29:31 2017//
/TAPPLICATION.HTM/1.2/Sat Aug 26 02:54:08 2017//
/TEXTARRAY.HTM/1.6/Mon Sep 18 16:29:31 2017//
/TEXTBOX.HTM/1.6/Mon Sep 18 16:29:31 2017//
/TIMEPICKER.HTM/1.6/Mon Sep 18 16:29:31 2017//
/TIMER.HTM/1.6/Mon Sep 18 16:29:31 2017//
/TOOLBAR.HTM/1.6/Mon Sep 18 16:29:31 2017//
/TOOLTIP.HTM/1.1/Sat Aug 26 02:54:10 2017//
/TPRINT.HTM/1.9/Mon Sep 18 16:29:31 2017//
/TREE.HTM/1.8/Mon Sep 18 16:29:31 2017//
/UNCOMPRESS.HTM/1.7/Mon Sep 18 16:29:31 2017//
/WAVE.HTM/1.8/Mon Sep 18 16:29:31 2017//
/WINDOW.HTM/1.7/Mon Sep 18 16:29:31 2017//
/WINDOW_COMMANDS.HTM/1.1/Sat Aug 26 02:54:10 2017//
/WINDOW_DECLARE.HTM/1.1/Sat Aug 26 02:54:10 2017//
/WINDOW_DEFINE.HTM/1.1/Sat Aug 26 02:54:10 2017//
/WINDOW_LOAD.HTM/1.1/Sat Aug 26 02:54:10 2017//
/WINDOW_SETS.HTM/1.1/Sat Aug 26 02:54:10 2017//
/XBROWSE.HTM/1.7/Mon Sep 18 16:29:31 2017//
/ooHG.hhc/1.6/Mon Sep 18 16:29:31 2017//
/ooHG.hhp/1.7/Mon Sep 18 16:29:31 2017//
